sensor_id;sensor_type;location;lat;lon;timestamp;P1;durP1;ratioP1;P2;durP2;ratioP2
47329;SDS011;33060;50.178;7.570;2022-12-07T00:01:45;11.00;;;7.63;;
47329;SDS011;33060;50.178;7.570;2022-12-07T00:04:14;11.77;;;8.00;;
47329;SDS011;33060;50.178;7.570;2022-12-07T00:06:42;11.43;;;7.50;;
47329;SDS011;33060;50.178;7.570;2022-12-07T00:09:11;10.43;;;7.03;;
47329;SDS011;33060;50.178;7.570;2022-12-07T00:11:39;10.07;;;6.70;;
47329;SDS011;33060;50.178;7.570;2022-12-07T00:14:09;8.93;;;6.77;;
47329;SDS011;33060;50.178;7.570;2022-12-07T00:16:38;11.10;;;7.30;;
47329;SDS011;33060;50.178;7.570;2022-12-07T00:19:05;12.37;;;7.57;;
47329;SDS011;33060;50.178;7.570;2022-12-07T00:21:32;11.30;;;7.57;;
47329;SDS011;33060;50.178;7.570;2022-12-07T00:24:01;12.23;;;7.67;;
47329;SDS011;33060;50.178;7.570;2022-12-07T00:26:30;11.37;;;7.77;;
47329;SDS011;33060;50.178;7.570;2022-12-07T00:29:04;11.07;;;7.93;;
47329;SDS011;33060;50.178;7.570;2022-12-07T00:31:33;12.13;;;8.10;;
47329;SDS011;33060;50.178;7.570;2022-12-07T00:34:05;11.93;;;7.47;;
47329;SDS011;33060;50.178;7.570;2022-12-07T00:36:33;13.27;;;8.20;;
47329;SDS011;33060;50.178;7.570;2022-12-07T00:39:00;12.63;;;7.80;;
47329;SDS011;33060;50.178;7.570;2022-12-07T00:41:27;11.17;;;8.10;;
47329;SDS011;33060;50.178;7.570;2022-12-07T00:43:54;14.67;;;8.47;;
47329;SDS011;33060;50.178;7.570;2022-12-07T00:46:22;14.83;;;8.80;;
47329;SDS011;33060;50.178;7.570;2022-12-07T00:48:50;12.73;;;8.43;;
47329;SDS011;33060;50.178;7.570;2022-12-07T00:51:18;12.47;;;8.40;;
47329;SDS011;33060;50.178;7.570;2022-12-07T00:53:46;12.90;;;8.30;;
47329;SDS011;33060;50.178;7.570;2022-12-07T00:58:49;11.30;;;7.53;;
47329;SDS011;33060;50.178;7.570;2022-12-07T01:01:16;13.83;;;8.70;;
47329;SDS011;33060;50.178;7.570;2022-12-07T01:03:43;12.00;;;8.30;;
47329;SDS011;33060;50.178;7.570;2022-12-07T01:06:09;12.60;;;7.80;;
47329;SDS011;33060;50.178;7.570;2022-12-07T01:08:40;13.57;;;8.57;;
47329;SDS011;33060;50.178;7.570;2022-12-07T01:11:07;12.87;;;8.60;;
47329;SDS011;33060;50.178;7.570;2022-12-07T01:13:36;14.20;;;9.67;;
47329;SDS011;33060;50.178;7.570;2022-12-07T01:16:03;14.13;;;9.50;;
47329;SDS011;33060;50.178;7.570;2022-12-07T01:18:32;11.93;;;8.90;;
47329;SDS011;33060;50.178;7.570;2022-12-07T01:21:07;14.57;;;9.33;;
47329;SDS011;33060;50.178;7.570;2022-12-07T01:23:37;12.23;;;8.80;;
47329;SDS011;33060;50.178;7.570;2022-12-07T01:26:05;12.47;;;9.20;;
47329;SDS011;33060;50.178;7.570;2022-12-07T01:28:35;14.53;;;10.13;;
47329;SDS011;33060;50.178;7.570;2022-12-07T01:31:03;14.20;;;10.13;;
47329;SDS011;33060;50.178;7.570;2022-12-07T01:33:33;13.70;;;9.70;;
47329;SDS011;33060;50.178;7.570;2022-12-07T01:36:02;16.07;;;9.80;;
47329;SDS011;33060;50.178;7.570;2022-12-07T01:38:30;17.13;;;10.80;;
47329;SDS011;33060;50.178;7.570;2022-12-07T01:40:58;14.83;;;10.67;;
47329;SDS011;33060;50.178;7.570;2022-12-07T01:43:27;16.37;;;11.60;;
47329;SDS011;33060;50.178;7.570;2022-12-07T01:45:55;17.93;;;11.30;;
47329;SDS011;33060;50.178;7.570;2022-12-07T01:48:33;16.40;;;10.70;;
47329;SDS011;33060;50.178;7.570;2022-12-07T01:51:08;16.23;;;10.57;;
47329;SDS011;33060;50.178;7.570;2022-12-07T01:53:38;17.57;;;10.87;;
47329;SDS011;33060;50.178;7.570;2022-12-07T01:56:08;17.60;;;10.93;;
47329;SDS011;33060;50.178;7.570;2022-12-07T01:58:40;17.43;;;11.60;;
47329;SDS011;33060;50.178;7.570;2022-12-07T02:01:07;16.53;;;11.37;;
47329;SDS011;33060;50.178;7.570;2022-12-07T02:03:35;17.33;;;10.97;;
47329;SDS011;33060;50.178;7.570;2022-12-07T02:06:06;15.67;;;10.37;;
47329;SDS011;33060;50.178;7.570;2022-12-07T02:08:34;16.83;;;11.07;;
47329;SDS011;33060;50.178;7.570;2022-12-07T02:11:02;19.63;;;12.10;;
47329;SDS011;33060;50.178;7.570;2022-12-07T02:13:33;16.53;;;11.57;;
47329;SDS011;33060;50.178;7.570;2022-12-07T02:30:19;20.37;;;12.37;;
47329;SDS011;33060;50.178;7.570;2022-12-07T02:40:59;16.63;;;12.10;;
47329;SDS011;33060;50.178;7.570;2022-12-07T02:46:07;21.17;;;13.33;;
47329;SDS011;33060;50.178;7.570;2022-12-07T02:48:38;18.57;;;12.37;;
47329;SDS011;33060;50.178;7.570;2022-12-07T02:51:07;18.47;;;11.37;;
47329;SDS011;33060;50.178;7.570;2022-12-07T02:53:37;17.47;;;11.73;;
47329;SDS011;33060;50.178;7.570;2022-12-07T02:56:26;20.37;;;12.70;;
47329;SDS011;33060;50.178;7.570;2022-12-07T02:59:25;19.17;;;12.60;;
47329;SDS011;33060;50.178;7.570;2022-12-07T03:05:04;18.27;;;12.30;;
47329;SDS011;33060;50.178;7.570;2022-12-07T03:07:39;20.37;;;12.93;;
47329;SDS011;33060;50.178;7.570;2022-12-07T03:10:34;19.40;;;12.97;;
47329;SDS011;33060;50.178;7.570;2022-12-07T03:15:49;19.30;;;12.80;;
47329;SDS011;33060;50.178;7.570;2022-12-07T03:18:20;17.77;;;12.30;;
47329;SDS011;33060;50.178;7.570;2022-12-07T03:20:51;18.03;;;12.50;;
47329;SDS011;33060;50.178;7.570;2022-12-07T03:23:20;17.63;;;12.50;;
47329;SDS011;33060;50.178;7.570;2022-12-07T03:25:52;17.77;;;12.23;;
47329;SDS011;33060;50.178;7.570;2022-12-07T03:28:27;19.23;;;12.77;;
47329;SDS011;33060;50.178;7.570;2022-12-07T03:31:03;19.20;;;12.83;;
47329;SDS011;33060;50.178;7.570;2022-12-07T03:34:21;16.90;;;12.17;;
47329;SDS011;33060;50.178;7.570;2022-12-07T03:36:55;18.33;;;12.17;;
47329;SDS011;33060;50.178;7.570;2022-12-07T03:39:29;18.90;;;12.40;;
47329;SDS011;33060;50.178;7.570;2022-12-07T03:42:00;16.17;;;11.07;;
47329;SDS011;33060;50.178;7.570;2022-12-07T03:44:30;19.90;;;11.80;;
47329;SDS011;33060;50.178;7.570;2022-12-07T03:47:02;17.60;;;11.53;;
47329;SDS011;33060;50.178;7.570;2022-12-07T03:49:41;16.30;;;10.90;;
47329;SDS011;33060;50.178;7.570;2022-12-07T03:52:31;16.83;;;11.93;;
47329;SDS011;33060;50.178;7.570;2022-12-07T03:57:51;16.70;;;10.87;;
47329;SDS011;33060;50.178;7.570;2022-12-07T04:00:22;15.90;;;11.03;;
47329;SDS011;33060;50.178;7.570;2022-12-07T04:02:51;15.93;;;11.33;;
47329;SDS011;33060;50.178;7.570;2022-12-07T04:05:19;15.77;;;10.83;;
47329;SDS011;33060;50.178;7.570;2022-12-07T04:07:46;16.63;;;11.13;;
47329;SDS011;33060;50.178;7.570;2022-12-07T04:10:13;16.10;;;10.57;;
47329;SDS011;33060;50.178;7.570;2022-12-07T04:12:40;17.07;;;11.40;;
47329;SDS011;33060;50.178;7.570;2022-12-07T04:15:07;15.43;;;11.13;;
47329;SDS011;33060;50.178;7.570;2022-12-07T04:17:34;17.93;;;11.93;;
47329;SDS011;33060;50.178;7.570;2022-12-07T04:20:02;16.40;;;11.50;;
47329;SDS011;33060;50.178;7.570;2022-12-07T04:22:31;16.40;;;11.40;;
47329;SDS011;33060;50.178;7.570;2022-12-07T04:24:58;16.33;;;11.60;;
47329;SDS011;33060;50.178;7.570;2022-12-07T04:27:25;16.33;;;11.87;;
47329;SDS011;33060;50.178;7.570;2022-12-07T04:29:51;20.17;;;12.50;;
47329;SDS011;33060;50.178;7.570;2022-12-07T04:32:18;17.60;;;11.63;;
47329;SDS011;33060;50.178;7.570;2022-12-07T04:34:45;16.70;;;11.20;;
47329;SDS011;33060;50.178;7.570;2022-12-07T04:37:11;16.67;;;11.77;;
47329;SDS011;33060;50.178;7.570;2022-12-07T04:39:38;15.83;;;10.93;;
47329;SDS011;33060;50.178;7.570;2022-12-07T04:42:04;17.63;;;11.63;;
47329;SDS011;33060;50.178;7.570;2022-12-07T04:44:31;16.30;;;11.53;;
47329;SDS011;33060;50.178;7.570;2022-12-07T04:46:58;16.93;;;12.27;;
47329;SDS011;33060;50.178;7.570;2022-12-07T04:49:25;18.87;;;12.37;;
47329;SDS011;33060;50.178;7.570;2022-12-07T04:51:51;16.43;;;11.53;;
47329;SDS011;33060;50.178;7.570;2022-12-07T04:54:18;18.33;;;12.03;;
47329;SDS011;33060;50.178;7.570;2022-12-07T04:56:45;17.87;;;11.73;;
47329;SDS011;33060;50.178;7.570;2022-12-07T04:59:12;17.43;;;11.70;;
47329;SDS011;33060;50.178;7.570;2022-12-07T05:01:39;17.50;;;12.23;;
47329;SDS011;33060;50.178;7.570;2022-12-07T05:04:07;17.37;;;12.00;;
47329;SDS011;33060;50.178;7.570;2022-12-07T05:06:34;17.63;;;12.23;;
47329;SDS011;33060;50.178;7.570;2022-12-07T05:09:01;16.73;;;12.50;;
47329;SDS011;33060;50.178;7.570;2022-12-07T05:11:29;17.63;;;12.13;;
47329;SDS011;33060;50.178;7.570;2022-12-07T05:14:14;18.10;;;12.60;;
47329;SDS011;33060;50.178;7.570;2022-12-07T05:16:42;15.17;;;11.73;;
47329;SDS011;33060;50.178;7.570;2022-12-07T05:19:10;17.97;;;12.50;;
47329;SDS011;33060;50.178;7.570;2022-12-07T05:21:37;17.80;;;11.87;;
47329;SDS011;33060;50.178;7.570;2022-12-07T05:24:04;16.97;;;12.00;;
47329;SDS011;33060;50.178;7.570;2022-12-07T05:26:31;16.70;;;11.57;;
47329;SDS011;33060;50.178;7.570;2022-12-07T05:28:58;17.77;;;12.03;;
47329;SDS011;33060;50.178;7.570;2022-12-07T05:31:25;19.20;;;11.27;;
47329;SDS011;33060;50.178;7.570;2022-12-07T05:33:53;17.57;;;11.53;;
47329;SDS011;33060;50.178;7.570;2022-12-07T05:36:20;16.90;;;12.17;;
47329;SDS011;33060;50.178;7.570;2022-12-07T05:38:47;18.27;;;11.37;;
47329;SDS011;33060;50.178;7.570;2022-12-07T05:41:16;15.80;;;11.30;;
47329;SDS011;33060;50.178;7.570;2022-12-07T05:44:02;17.87;;;11.63;;
47329;SDS011;33060;50.178;7.570;2022-12-07T05:46:29;21.07;;;13.03;;
47329;SDS011;33060;50.178;7.570;2022-12-07T05:48:56;17.83;;;12.53;;
47329;SDS011;33060;50.178;7.570;2022-12-07T05:51:25;19.13;;;12.80;;
47329;SDS011;33060;50.178;7.570;2022-12-07T05:53:51;16.80;;;12.70;;
47329;SDS011;33060;50.178;7.570;2022-12-07T05:56:18;20.40;;;13.33;;
47329;SDS011;33060;50.178;7.570;2022-12-07T05:58:45;18.80;;;11.97;;
47329;SDS011;33060;50.178;7.570;2022-12-07T06:01:30;17.70;;;11.90;;
47329;SDS011;33060;50.178;7.570;2022-12-07T06:03:56;17.80;;;11.30;;
47329;SDS011;33060;50.178;7.570;2022-12-07T06:06:23;15.83;;;11.03;;
47329;SDS011;33060;50.178;7.570;2022-12-07T06:08:50;18.40;;;12.13;;
47329;SDS011;33060;50.178;7.570;2022-12-07T06:11:16;18.87;;;11.67;;
47329;SDS011;33060;50.178;7.570;2022-12-07T06:14:01;18.67;;;12.90;;
47329;SDS011;33060;50.178;7.570;2022-12-07T06:16:28;16.57;;;12.13;;
47329;SDS011;33060;50.178;7.570;2022-12-07T06:18:55;17.80;;;13.30;;
47329;SDS011;33060;50.178;7.570;2022-12-07T06:21:22;17.60;;;12.10;;
47329;SDS011;33060;50.178;7.570;2022-12-07T06:23:48;16.33;;;11.47;;
47329;SDS011;33060;50.178;7.570;2022-12-07T06:26:15;16.63;;;12.57;;
47329;SDS011;33060;50.178;7.570;2022-12-07T06:28:41;14.73;;;11.07;;
47329;SDS011;33060;50.178;7.570;2022-12-07T06:31:08;16.20;;;11.60;;
47329;SDS011;33060;50.178;7.570;2022-12-07T06:33:39;16.00;;;11.23;;
47329;SDS011;33060;50.178;7.570;2022-12-07T06:36:07;18.83;;;11.30;;
47329;SDS011;33060;50.178;7.570;2022-12-07T06:38:34;16.33;;;11.17;;
47329;SDS011;33060;50.178;7.570;2022-12-07T06:41:00;15.93;;;11.60;;
47329;SDS011;33060;50.178;7.570;2022-12-07T06:43:27;16.73;;;11.57;;
47329;SDS011;33060;50.178;7.570;2022-12-07T06:45:54;16.53;;;11.00;;
47329;SDS011;33060;50.178;7.570;2022-12-07T06:48:21;19.53;;;12.43;;
47329;SDS011;33060;50.178;7.570;2022-12-07T06:50:48;19.67;;;11.63;;
47329;SDS011;33060;50.178;7.570;2022-12-07T06:53:20;20.57;;;14.90;;
47329;SDS011;33060;50.178;7.570;2022-12-07T06:55:47;16.33;;;11.63;;
47329;SDS011;33060;50.178;7.570;2022-12-07T06:58:13;19.07;;;12.30;;
47329;SDS011;33060;50.178;7.570;2022-12-07T07:00:40;19.63;;;12.80;;
47329;SDS011;33060;50.178;7.570;2022-12-07T07:03:07;15.47;;;10.90;;
47329;SDS011;33060;50.178;7.570;2022-12-07T07:05:34;15.40;;;10.87;;
47329;SDS011;33060;50.178;7.570;2022-12-07T07:08:01;16.97;;;11.20;;
47329;SDS011;33060;50.178;7.570;2022-12-07T07:10:48;17.97;;;10.40;;
47329;SDS011;33060;50.178;7.570;2022-12-07T07:13:15;15.67;;;10.23;;
47329;SDS011;33060;50.178;7.570;2022-12-07T07:15:42;15.37;;;11.00;;
47329;SDS011;33060;50.178;7.570;2022-12-07T07:18:09;19.13;;;12.03;;
47329;SDS011;33060;50.178;7.570;2022-12-07T07:20:36;17.20;;;11.20;;
47329;SDS011;33060;50.178;7.570;2022-12-07T07:23:02;16.17;;;10.60;;
47329;SDS011;33060;50.178;7.570;2022-12-07T07:25:29;13.10;;;8.83;;
47329;SDS011;33060;50.178;7.570;2022-12-07T07:27:56;13.13;;;8.93;;
47329;SDS011;33060;50.178;7.570;2022-12-07T07:30:23;12.70;;;9.40;;
47329;SDS011;33060;50.178;7.570;2022-12-07T07:32:50;14.73;;;9.47;;
47329;SDS011;33060;50.178;7.570;2022-12-07T07:35:17;15.33;;;9.90;;
47329;SDS011;33060;50.178;7.570;2022-12-07T07:37:43;13.63;;;9.73;;
47329;SDS011;33060;50.178;7.570;2022-12-07T07:40:10;14.37;;;9.47;;
47329;SDS011;33060;50.178;7.570;2022-12-07T07:42:37;12.80;;;9.13;;
47329;SDS011;33060;50.178;7.570;2022-12-07T07:45:04;16.10;;;10.00;;
47329;SDS011;33060;50.178;7.570;2022-12-07T07:47:31;16.93;;;10.70;;
47329;SDS011;33060;50.178;7.570;2022-12-07T07:49:57;15.17;;;10.63;;
47329;SDS011;33060;50.178;7.570;2022-12-07T07:52:24;15.60;;;10.30;;
47329;SDS011;33060;50.178;7.570;2022-12-07T07:54:51;13.10;;;9.57;;
47329;SDS011;33060;50.178;7.570;2022-12-07T07:57:18;15.53;;;9.13;;
47329;SDS011;33060;50.178;7.570;2022-12-07T07:59:44;13.90;;;9.23;;
47329;SDS011;33060;50.178;7.570;2022-12-07T08:02:14;14.77;;;10.00;;
47329;SDS011;33060;50.178;7.570;2022-12-07T08:04:43;14.57;;;9.97;;
47329;SDS011;33060;50.178;7.570;2022-12-07T08:07:10;14.97;;;9.67;;
47329;SDS011;33060;50.178;7.570;2022-12-07T08:09:38;13.83;;;9.60;;
47329;SDS011;33060;50.178;7.570;2022-12-07T08:12:05;14.33;;;10.13;;
47329;SDS011;33060;50.178;7.570;2022-12-07T08:14:32;14.13;;;9.03;;
47329;SDS011;33060;50.178;7.570;2022-12-07T08:17:00;13.00;;;8.77;;
47329;SDS011;33060;50.178;7.570;2022-12-07T08:19:27;15.40;;;10.07;;
47329;SDS011;33060;50.178;7.570;2022-12-07T08:21:54;14.83;;;9.20;;
47329;SDS011;33060;50.178;7.570;2022-12-07T08:24:22;12.57;;;9.30;;
47329;SDS011;33060;50.178;7.570;2022-12-07T08:26:49;12.87;;;9.20;;
47329;SDS011;33060;50.178;7.570;2022-12-07T08:29:17;14.37;;;9.10;;
47329;SDS011;33060;50.178;7.570;2022-12-07T08:31:44;12.63;;;9.13;;
47329;SDS011;33060;50.178;7.570;2022-12-07T08:34:11;10.47;;;7.83;;
47329;SDS011;33060;50.178;7.570;2022-12-07T08:36:38;13.03;;;8.33;;
47329;SDS011;33060;50.178;7.570;2022-12-07T08:39:05;10.83;;;7.90;;
47329;SDS011;33060;50.178;7.570;2022-12-07T08:41:52;10.27;;;8.00;;
47329;SDS011;33060;50.178;7.570;2022-12-07T08:44:18;11.70;;;7.80;;
47329;SDS011;33060;50.178;7.570;2022-12-07T08:46:50;13.23;;;8.60;;
47329;SDS011;33060;50.178;7.570;2022-12-07T08:49:24;11.40;;;8.60;;
47329;SDS011;33060;50.178;7.570;2022-12-07T08:51:55;10.53;;;7.90;;
47329;SDS011;33060;50.178;7.570;2022-12-07T08:54:21;9.80;;;7.23;;
47329;SDS011;33060;50.178;7.570;2022-12-07T08:56:48;12.77;;;8.20;;
47329;SDS011;33060;50.178;7.570;2022-12-07T08:59:24;10.30;;;7.27;;
47329;SDS011;33060;50.178;7.570;2022-12-07T09:01:51;10.13;;;7.10;;
47329;SDS011;33060;50.178;7.570;2022-12-07T09:04:18;9.53;;;7.07;;
47329;SDS011;33060;50.178;7.570;2022-12-07T09:06:45;13.10;;;8.57;;
47329;SDS011;33060;50.178;7.570;2022-12-07T09:09:11;21.20;;;13.13;;
47329;SDS011;33060;50.178;7.570;2022-12-07T09:11:40;19.13;;;12.53;;
47329;SDS011;33060;50.178;7.570;2022-12-07T09:14:06;16.30;;;9.80;;
47329;SDS011;33060;50.178;7.570;2022-12-07T09:16:33;13.53;;;9.57;;
47329;SDS011;33060;50.178;7.570;2022-12-07T09:19:00;12.50;;;9.40;;
47329;SDS011;33060;50.178;7.570;2022-12-07T09:21:27;12.47;;;8.53;;
47329;SDS011;33060;50.178;7.570;2022-12-07T09:23:53;12.33;;;7.50;;
47329;SDS011;33060;50.178;7.570;2022-12-07T09:26:20;10.13;;;7.23;;
47329;SDS011;33060;50.178;7.570;2022-12-07T09:28:46;12.40;;;7.43;;
47329;SDS011;33060;50.178;7.570;2022-12-07T09:31:13;10.37;;;7.07;;
47329;SDS011;33060;50.178;7.570;2022-12-07T09:33:56;9.90;;;7.03;;
47329;SDS011;33060;50.178;7.570;2022-12-07T09:36:24;12.17;;;7.23;;
47329;SDS011;33060;50.178;7.570;2022-12-07T09:38:51;9.03;;;6.83;;
47329;SDS011;33060;50.178;7.570;2022-12-07T09:41:18;9.03;;;6.47;;
47329;SDS011;33060;50.178;7.570;2022-12-07T09:43:46;9.77;;;6.97;;
47329;SDS011;33060;50.178;7.570;2022-12-07T09:46:14;9.80;;;6.60;;
47329;SDS011;33060;50.178;7.570;2022-12-07T09:48:44;9.87;;;6.63;;
47329;SDS011;33060;50.178;7.570;2022-12-07T09:51:16;10.10;;;6.40;;
47329;SDS011;33060;50.178;7.570;2022-12-07T09:53:50;8.77;;;6.40;;
47329;SDS011;33060;50.178;7.570;2022-12-07T09:56:19;10.20;;;7.03;;
47329;SDS011;33060;50.178;7.570;2022-12-07T09:58:46;10.87;;;6.27;;
47329;SDS011;33060;50.178;7.570;2022-12-07T10:01:18;9.97;;;7.00;;
47329;SDS011;33060;50.178;7.570;2022-12-07T10:03:50;9.83;;;7.00;;
47329;SDS011;33060;50.178;7.570;2022-12-07T10:06:19;11.77;;;7.07;;
47329;SDS011;33060;50.178;7.570;2022-12-07T10:08:46;10.83;;;6.80;;
47329;SDS011;33060;50.178;7.570;2022-12-07T10:11:13;12.27;;;7.20;;
47329;SDS011;33060;50.178;7.570;2022-12-07T10:13:43;9.33;;;6.97;;
47329;SDS011;33060;50.178;7.570;2022-12-07T10:16:28;9.30;;;6.53;;
47329;SDS011;33060;50.178;7.570;2022-12-07T10:19:25;10.73;;;7.47;;
47329;SDS011;33060;50.178;7.570;2022-12-07T10:24:31;10.10;;;7.07;;
47329;SDS011;33060;50.178;7.570;2022-12-07T10:26:59;10.57;;;6.90;;
47329;SDS011;33060;50.178;7.570;2022-12-07T10:34:59;10.13;;;7.33;;
47329;SDS011;33060;50.178;7.570;2022-12-07T10:37:46;9.10;;;6.20;;
47329;SDS011;33060;50.178;7.570;2022-12-07T10:43:02;12.20;;;7.20;;
47329;SDS011;33060;50.178;7.570;2022-12-07T10:45:32;9.43;;;6.90;;
47329;SDS011;33060;50.178;7.570;2022-12-07T10:48:34;8.57;;;6.63;;
47329;SDS011;33060;50.178;7.570;2022-12-07T10:51:23;10.93;;;6.97;;
47329;SDS011;33060;50.178;7.570;2022-12-07T10:59:21;10.03;;;6.37;;
47329;SDS011;33060;50.178;7.570;2022-12-07T11:01:58;8.20;;;5.87;;
47329;SDS011;33060;50.178;7.570;2022-12-07T11:04:53;9.93;;;6.07;;
47329;SDS011;33060;50.178;7.570;2022-12-07T11:07:36;9.57;;;6.70;;
47329;SDS011;33060;50.178;7.570;2022-12-07T11:18:39;6.67;;;5.00;;
47329;SDS011;33060;50.178;7.570;2022-12-07T11:26:48;7.57;;;6.00;;
47329;SDS011;33060;50.178;7.570;2022-12-07T11:32:12;11.23;;;5.57;;
47329;SDS011;33060;50.178;7.570;2022-12-07T11:34:51;8.43;;;5.30;;
47329;SDS011;33060;50.178;7.570;2022-12-07T11:37:33;8.90;;;5.70;;
47329;SDS011;33060;50.178;7.570;2022-12-07T11:40:11;7.83;;;5.10;;
47329;SDS011;33060;50.178;7.570;2022-12-07T11:42:42;7.67;;;5.00;;
47329;SDS011;33060;50.178;7.570;2022-12-07T11:45:16;8.00;;;5.27;;
47329;SDS011;33060;50.178;7.570;2022-12-07T11:53:10;8.90;;;5.53;;
47329;SDS011;33060;50.178;7.570;2022-12-07T11:58:39;6.67;;;4.53;;
47329;SDS011;33060;50.178;7.570;2022-12-07T12:04:06;8.23;;;4.67;;
47329;SDS011;33060;50.178;7.570;2022-12-07T12:06:33;6.70;;;4.73;;
47329;SDS011;33060;50.178;7.570;2022-12-07T12:09:14;7.00;;;4.90;;
47329;SDS011;33060;50.178;7.570;2022-12-07T12:15:20;6.60;;;4.40;;
47329;SDS011;33060;50.178;7.570;2022-12-07T12:18:14;6.97;;;3.90;;
47329;SDS011;33060;50.178;7.570;2022-12-07T12:21:06;6.00;;;4.00;;
47329;SDS011;33060;50.178;7.570;2022-12-07T12:26:24;9.07;;;5.00;;
47329;SDS011;33060;50.178;7.570;2022-12-07T12:32:16;4.13;;;3.17;;
47329;SDS011;33060;50.178;7.570;2022-12-07T12:42:49;5.10;;;3.10;;
47329;SDS011;33060;50.178;7.570;2022-12-07T12:47:59;7.47;;;3.50;;
47329;SDS011;33060;50.178;7.570;2022-12-07T12:50:33;8.30;;;6.43;;
47329;SDS011;33060;50.178;7.570;2022-12-07T13:00:49;6.00;;;3.60;;
47329;SDS011;33060;50.178;7.570;2022-12-07T13:03:51;6.60;;;3.80;;
47329;SDS011;33060;50.178;7.570;2022-12-07T13:06:31;6.43;;;3.23;;
47329;SDS011;33060;50.178;7.570;2022-12-07T13:09:02;6.53;;;4.13;;
47329;SDS011;33060;50.178;7.570;2022-12-07T13:11:32;4.63;;;3.10;;
47329;SDS011;33060;50.178;7.570;2022-12-07T13:19:59;5.73;;;4.00;;
47329;SDS011;33060;50.178;7.570;2022-12-07T13:24:57;5.40;;;2.53;;
47329;SDS011;33060;50.178;7.570;2022-12-07T13:27:31;6.63;;;3.07;;
47329;SDS011;33060;50.178;7.570;2022-12-07T13:29:58;4.70;;;3.00;;
47329;SDS011;33060;50.178;7.570;2022-12-07T13:32:26;6.57;;;3.87;;
47329;SDS011;33060;50.178;7.570;2022-12-07T13:34:54;5.60;;;2.87;;
47329;SDS011;33060;50.178;7.570;2022-12-07T13:37:30;5.43;;;2.87;;
47329;SDS011;33060;50.178;7.570;2022-12-07T13:40:20;4.43;;;2.10;;
47329;SDS011;33060;50.178;7.570;2022-12-07T13:42:48;2.70;;;1.70;;
47329;SDS011;33060;50.178;7.570;2022-12-07T13:45:31;4.73;;;2.70;;
47329;SDS011;33060;50.178;7.570;2022-12-07T13:48:27;7.80;;;4.50;;
47329;SDS011;33060;50.178;7.570;2022-12-07T13:51:03;5.57;;;2.70;;
47329;SDS011;33060;50.178;7.570;2022-12-07T13:53:30;5.77;;;2.77;;
47329;SDS011;33060;50.178;7.570;2022-12-07T13:55:57;4.70;;;2.40;;
47329;SDS011;33060;50.178;7.570;2022-12-07T13:58:26;6.13;;;3.00;;
47329;SDS011;33060;50.178;7.570;2022-12-07T14:00:56;6.67;;;3.90;;
47329;SDS011;33060;50.178;7.570;2022-12-07T14:03:25;8.23;;;3.83;;
47329;SDS011;33060;50.178;7.570;2022-12-07T14:06:22;8.47;;;5.87;;
47329;SDS011;33060;50.178;7.570;2022-12-07T14:09:07;5.73;;;3.87;;
47329;SDS011;33060;50.178;7.570;2022-12-07T14:11:45;8.57;;;3.97;;
47329;SDS011;33060;50.178;7.570;2022-12-07T14:14:15;8.70;;;5.60;;
47329;SDS011;33060;50.178;7.570;2022-12-07T14:16:54;5.10;;;2.03;;
47329;SDS011;33060;50.178;7.570;2022-12-07T14:24:49;6.17;;;3.13;;
47329;SDS011;33060;50.178;7.570;2022-12-07T14:27:17;7.40;;;4.17;;
47329;SDS011;33060;50.178;7.570;2022-12-07T14:29:57;11.27;;;6.13;;
47329;SDS011;33060;50.178;7.570;2022-12-07T14:32:25;9.73;;;5.13;;
47329;SDS011;33060;50.178;7.570;2022-12-07T14:34:57;11.90;;;6.17;;
47329;SDS011;33060;50.178;7.570;2022-12-07T14:37:26;10.13;;;6.30;;
47329;SDS011;33060;50.178;7.570;2022-12-07T14:39:54;10.30;;;5.70;;
47329;SDS011;33060;50.178;7.570;2022-12-07T14:42:21;7.00;;;4.30;;
47329;SDS011;33060;50.178;7.570;2022-12-07T14:44:51;9.67;;;4.70;;
47329;SDS011;33060;50.178;7.570;2022-12-07T14:47:17;6.07;;;3.57;;
47329;SDS011;33060;50.178;7.570;2022-12-07T14:50:04;5.80;;;3.17;;
47329;SDS011;33060;50.178;7.570;2022-12-07T14:52:32;8.97;;;4.93;;
47329;SDS011;33060;50.178;7.570;2022-12-07T14:55:29;7.83;;;5.47;;
47329;SDS011;33060;50.178;7.570;2022-12-07T14:57:57;9.03;;;4.77;;
47329;SDS011;33060;50.178;7.570;2022-12-07T15:00:26;10.70;;;5.67;;
47329;SDS011;33060;50.178;7.570;2022-12-07T15:02:54;11.30;;;6.97;;
47329;SDS011;33060;50.178;7.570;2022-12-07T15:05:21;13.60;;;6.23;;
47329;SDS011;33060;50.178;7.570;2022-12-07T15:07:49;11.23;;;6.33;;
47329;SDS011;33060;50.178;7.570;2022-12-07T15:12:49;6.93;;;3.63;;
47329;SDS011;33060;50.178;7.570;2022-12-07T15:15:16;13.53;;;7.37;;
47329;SDS011;33060;50.178;7.570;2022-12-07T15:17:43;15.47;;;9.17;;
47329;SDS011;33060;50.178;7.570;2022-12-07T15:20:14;13.73;;;8.30;;
47329;SDS011;33060;50.178;7.570;2022-12-07T15:22:43;8.80;;;4.53;;
47329;SDS011;33060;50.178;7.570;2022-12-07T15:25:12;6.00;;;3.80;;
47329;SDS011;33060;50.178;7.570;2022-12-07T15:27:39;5.77;;;3.63;;
47329;SDS011;33060;50.178;7.570;2022-12-07T15:30:06;4.57;;;3.00;;
47329;SDS011;33060;50.178;7.570;2022-12-07T15:32:33;5.07;;;3.67;;
47329;SDS011;33060;50.178;7.570;2022-12-07T15:35:00;4.00;;;2.73;;
47329;SDS011;33060;50.178;7.570;2022-12-07T15:37:27;4.97;;;3.10;;
47329;SDS011;33060;50.178;7.570;2022-12-07T15:39:54;3.97;;;2.77;;
47329;SDS011;33060;50.178;7.570;2022-12-07T15:42:20;5.10;;;2.70;;
47329;SDS011;33060;50.178;7.570;2022-12-07T15:44:47;3.87;;;2.30;;
47329;SDS011;33060;50.178;7.570;2022-12-07T15:47:34;3.60;;;2.77;;
47329;SDS011;33060;50.178;7.570;2022-12-07T15:50:22;5.53;;;2.80;;
47329;SDS011;33060;50.178;7.570;2022-12-07T15:52:49;4.87;;;2.70;;
47329;SDS011;33060;50.178;7.570;2022-12-07T15:55:15;4.27;;;2.87;;
47329;SDS011;33060;50.178;7.570;2022-12-07T15:57:42;4.83;;;3.10;;
47329;SDS011;33060;50.178;7.570;2022-12-07T16:00:09;5.90;;;3.60;;
47329;SDS011;33060;50.178;7.570;2022-12-07T16:02:37;4.10;;;3.07;;
47329;SDS011;33060;50.178;7.570;2022-12-07T16:05:05;6.00;;;3.30;;
47329;SDS011;33060;50.178;7.570;2022-12-07T16:07:32;5.40;;;3.33;;
47329;SDS011;33060;50.178;7.570;2022-12-07T16:09:59;6.10;;;3.37;;
47329;SDS011;33060;50.178;7.570;2022-12-07T16:12:25;6.57;;;4.07;;
47329;SDS011;33060;50.178;7.570;2022-12-07T16:14:52;6.57;;;4.17;;
47329;SDS011;33060;50.178;7.570;2022-12-07T16:17:19;7.93;;;4.00;;
47329;SDS011;33060;50.178;7.570;2022-12-07T16:19:45;9.23;;;5.73;;
47329;SDS011;33060;50.178;7.570;2022-12-07T16:22:12;8.07;;;4.23;;
47329;SDS011;33060;50.178;7.570;2022-12-07T16:24:39;5.07;;;3.43;;
47329;SDS011;33060;50.178;7.570;2022-12-07T16:27:05;6.33;;;4.00;;
47329;SDS011;33060;50.178;7.570;2022-12-07T16:29:32;4.90;;;4.10;;
47329;SDS011;33060;50.178;7.570;2022-12-07T16:31:58;8.37;;;5.27;;
47329;SDS011;33060;50.178;7.570;2022-12-07T16:34:25;8.30;;;6.20;;
47329;SDS011;33060;50.178;7.570;2022-12-07T16:36:52;8.13;;;6.90;;
47329;SDS011;33060;50.178;7.570;2022-12-07T16:39:34;9.50;;;7.20;;
47329;SDS011;33060;50.178;7.570;2022-12-07T16:42:00;9.20;;;7.10;;
47329;SDS011;33060;50.178;7.570;2022-12-07T16:44:27;9.47;;;6.80;;
47329;SDS011;33060;50.178;7.570;2022-12-07T16:46:54;8.90;;;7.00;;
47329;SDS011;33060;50.178;7.570;2022-12-07T16:49:21;9.27;;;6.93;;
47329;SDS011;33060;50.178;7.570;2022-12-07T16:51:50;9.07;;;6.70;;
47329;SDS011;33060;50.178;7.570;2022-12-07T16:54:37;11.80;;;6.27;;
47329;SDS011;33060;50.178;7.570;2022-12-07T16:57:03;9.70;;;6.20;;
47329;SDS011;33060;50.178;7.570;2022-12-07T16:59:30;10.23;;;6.20;;